sensor_id;sensor_type;location;lat;lon;timestamp;P1;durP1;ratioP1;P2;durP2;ratioP2
33094;SDS011;19459;53.044;8.910;2023-01-28T00:01:50;5.10;;;2.67;;
33094;SDS011;19459;53.044;8.910;2023-01-28T00:04:16;5.13;;;2.20;;
33094;SDS011;19459;53.044;8.910;2023-01-28T00:06:42;6.45;;;1.83;;
33094;SDS011;19459;53.044;8.910;2023-01-28T00:09:08;5.32;;;2.42;;
33094;SDS011;19459;53.044;8.910;2023-01-28T00:11:33;5.20;;;3.08;;
33094;SDS011;19459;53.044;8.910;2023-01-28T00:13:59;4.68;;;2.90;;
33094;SDS011;19459;53.044;8.910;2023-01-28T00:16:26;7.13;;;2.88;;
33094;SDS011;19459;53.044;8.910;2023-01-28T00:18:53;4.95;;;2.60;;
33094;SDS011;19459;53.044;8.910;2023-01-28T00:21:18;4.55;;;2.80;;
33094;SDS011;19459;53.044;8.910;2023-01-28T00:23:51;6.70;;;3.17;;
33094;SDS011;19459;53.044;8.910;2023-01-28T00:26:20;10.77;;;5.45;;
33094;SDS011;19459;53.044;8.910;2023-01-28T00:28:47;3.45;;;2.50;;
33094;SDS011;19459;53.044;8.910;2023-01-28T00:31:17;4.70;;;2.38;;
33094;SDS011;19459;53.044;8.910;2023-01-28T00:33:47;6.47;;;2.50;;
33094;SDS011;19459;53.044;8.910;2023-01-28T00:36:15;6.63;;;2.53;;
33094;SDS011;19459;53.044;8.910;2023-01-28T00:38:47;7.78;;;2.30;;
33094;SDS011;19459;53.044;8.910;2023-01-28T00:41:19;6.00;;;2.17;;
33094;SDS011;19459;53.044;8.910;2023-01-28T00:43:47;3.88;;;2.30;;
33094;SDS011;19459;53.044;8.910;2023-01-28T00:46:14;8.48;;;2.42;;
33094;SDS011;19459;53.044;8.910;2023-01-28T00:48:40;7.97;;;2.33;;
33094;SDS011;19459;53.044;8.910;2023-01-28T00:51:08;4.57;;;2.28;;
33094;SDS011;19459;53.044;8.910;2023-01-28T00:53:35;6.18;;;2.20;;
33094;SDS011;19459;53.044;8.910;2023-01-28T00:56:02;7.63;;;2.55;;
33094;SDS011;19459;53.044;8.910;2023-01-28T00:58:30;9.95;;;2.25;;
33094;SDS011;19459;53.044;8.910;2023-01-28T01:01:05;5.07;;;1.85;;
33094;SDS011;19459;53.044;8.910;2023-01-28T01:03:42;6.97;;;1.90;;
33094;SDS011;19459;53.044;8.910;2023-01-28T01:06:09;4.22;;;1.83;;
33094;SDS011;19459;53.044;8.910;2023-01-28T01:08:37;5.15;;;2.38;;
33094;SDS011;19459;53.044;8.910;2023-01-28T01:11:07;3.38;;;2.20;;
33094;SDS011;19459;53.044;8.910;2023-01-28T01:13:35;7.20;;;1.95;;
33094;SDS011;19459;53.044;8.910;2023-01-28T01:16:09;2.20;;;1.73;;
33094;SDS011;19459;53.044;8.910;2023-01-28T01:18:37;2.90;;;1.90;;
33094;SDS011;19459;53.044;8.910;2023-01-28T01:21:08;5.55;;;1.92;;
33094;SDS011;19459;53.044;8.910;2023-01-28T01:23:36;5.50;;;1.80;;
33094;SDS011;19459;53.044;8.910;2023-01-28T01:26:03;5.90;;;2.35;;
33094;SDS011;19459;53.044;8.910;2023-01-28T01:28:30;4.43;;;1.92;;
33094;SDS011;19459;53.044;8.910;2023-01-28T01:31:01;2.13;;;1.60;;
33094;SDS011;19459;53.044;8.910;2023-01-28T01:33:33;7.03;;;3.83;;
33094;SDS011;19459;53.044;8.910;2023-01-28T01:35:59;3.17;;;2.15;;
33094;SDS011;19459;53.044;8.910;2023-01-28T01:38:25;5.60;;;2.63;;
33094;SDS011;19459;53.044;8.910;2023-01-28T01:40:51;2.38;;;1.75;;
33094;SDS011;19459;53.044;8.910;2023-01-28T01:43:21;8.52;;;2.63;;
33094;SDS011;19459;53.044;8.910;2023-01-28T01:45:48;3.17;;;1.95;;
33094;SDS011;19459;53.044;8.910;2023-01-28T01:48:22;5.47;;;2.00;;
33094;SDS011;19459;53.044;8.910;2023-01-28T01:50:59;5.22;;;2.47;;
33094;SDS011;19459;53.044;8.910;2023-01-28T01:53:41;6.28;;;2.17;;
33094;SDS011;19459;53.044;8.910;2023-01-28T01:56:12;4.90;;;2.38;;
33094;SDS011;19459;53.044;8.910;2023-01-28T01:58:43;7.03;;;3.90;;
33094;SDS011;19459;53.044;8.910;2023-01-28T02:01:14;2.50;;;2.25;;
33094;SDS011;19459;53.044;8.910;2023-01-28T02:03:56;3.38;;;2.05;;
33094;SDS011;19459;53.044;8.910;2023-01-28T02:06:32;2.80;;;2.30;;
33094;SDS011;19459;53.044;8.910;2023-01-28T02:09:00;8.15;;;2.50;;
33094;SDS011;19459;53.044;8.910;2023-01-28T02:11:28;5.85;;;2.63;;
33094;SDS011;19459;53.044;8.910;2023-01-28T02:13:57;3.17;;;2.40;;
33094;SDS011;19459;53.044;8.910;2023-01-28T02:16:26;4.75;;;2.50;;
33094;SDS011;19459;53.044;8.910;2023-01-28T02:18:55;9.32;;;2.85;;
33094;SDS011;19459;53.044;8.910;2023-01-28T02:27:23;5.35;;;2.72;;
33094;SDS011;19459;53.044;8.910;2023-01-28T02:30:22;5.43;;;2.40;;
33094;SDS011;19459;53.044;8.910;2023-01-28T02:32:58;5.30;;;2.38;;
33094;SDS011;19459;53.044;8.910;2023-01-28T02:38:10;5.38;;;2.90;;
33094;SDS011;19459;53.044;8.910;2023-01-28T02:40:42;6.43;;;3.00;;
33094;SDS011;19459;53.044;8.910;2023-01-28T02:45:59;3.35;;;2.60;;
33094;SDS011;19459;53.044;8.910;2023-01-28T02:48:58;7.82;;;3.28;;
33094;SDS011;19459;53.044;8.910;2023-01-28T02:51:32;7.53;;;4.03;;
33094;SDS011;19459;53.044;8.910;2023-01-28T02:54:21;5.20;;;2.85;;
33094;SDS011;19459;53.044;8.910;2023-01-28T02:57:29;6.03;;;3.05;;
33094;SDS011;19459;53.044;8.910;2023-01-28T03:00:03;6.88;;;3.13;;
33094;SDS011;19459;53.044;8.910;2023-01-28T03:02:52;5.07;;;2.88;;
33094;SDS011;19459;53.044;8.910;2023-01-28T03:05:41;7.15;;;2.95;;
33094;SDS011;19459;53.044;8.910;2023-01-28T03:11:30;4.18;;;2.70;;
33094;SDS011;19459;53.044;8.910;2023-01-28T03:14:19;5.57;;;2.92;;
33094;SDS011;19459;53.044;8.910;2023-01-28T03:17:06;6.57;;;2.80;;
33094;SDS011;19459;53.044;8.910;2023-01-28T03:19:57;4.05;;;2.60;;
33094;SDS011;19459;53.044;8.910;2023-01-28T03:25:28;3.92;;;2.53;;
33094;SDS011;19459;53.044;8.910;2023-01-28T03:28:15;3.78;;;2.72;;
33094;SDS011;19459;53.044;8.910;2023-01-28T03:31:07;7.22;;;2.83;;
33094;SDS011;19459;53.044;8.910;2023-01-28T03:33:56;4.95;;;2.50;;
33094;SDS011;19459;53.044;8.910;2023-01-28T03:36:43;5.53;;;2.80;;
33094;SDS011;19459;53.044;8.910;2023-01-28T03:39:26;6.07;;;2.78;;
33094;SDS011;19459;53.044;8.910;2023-01-28T03:41:57;9.10;;;3.22;;
33094;SDS011;19459;53.044;8.910;2023-01-28T03:44:25;3.40;;;2.83;;
33094;SDS011;19459;53.044;8.910;2023-01-28T03:47:10;5.50;;;2.72;;
33094;SDS011;19459;53.044;8.910;2023-01-28T03:49:40;7.47;;;3.10;;
33094;SDS011;19459;53.044;8.910;2023-01-28T03:52:13;7.85;;;3.20;;
33094;SDS011;19459;53.044;8.910;2023-01-28T03:54:41;4.22;;;2.75;;
33094;SDS011;19459;53.044;8.910;2023-01-28T03:57:07;4.22;;;2.90;;
33094;SDS011;19459;53.044;8.910;2023-01-28T03:59:33;6.30;;;2.70;;
33094;SDS011;19459;53.044;8.910;2023-01-28T04:01:59;5.00;;;3.15;;
33094;SDS011;19459;53.044;8.910;2023-01-28T04:04:27;8.05;;;2.90;;
33094;SDS011;19459;53.044;8.910;2023-01-28T04:06:56;6.65;;;2.90;;
33094;SDS011;19459;53.044;8.910;2023-01-28T04:09:22;8.30;;;3.25;;
33094;SDS011;19459;53.044;8.910;2023-01-28T04:11:49;4.88;;;3.08;;
33094;SDS011;19459;53.044;8.910;2023-01-28T04:14:15;6.75;;;3.45;;
33094;SDS011;19459;53.044;8.910;2023-01-28T04:16:42;4.30;;;2.60;;
33094;SDS011;19459;53.044;8.910;2023-01-28T04:19:08;5.97;;;2.60;;
33094;SDS011;19459;53.044;8.910;2023-01-28T04:21:36;6.20;;;2.90;;
33094;SDS011;19459;53.044;8.910;2023-01-28T04:24:02;5.32;;;3.30;;
33094;SDS011;19459;53.044;8.910;2023-01-28T04:26:29;5.28;;;3.25;;
33094;SDS011;19459;53.044;8.910;2023-01-28T04:28:55;4.88;;;3.10;;
33094;SDS011;19459;53.044;8.910;2023-01-28T04:31:21;6.57;;;3.10;;
33094;SDS011;19459;53.044;8.910;2023-01-28T04:33:47;7.47;;;3.58;;
33094;SDS011;19459;53.044;8.910;2023-01-28T04:36:14;7.03;;;3.70;;
33094;SDS011;19459;53.044;8.910;2023-01-28T04:38:41;3.80;;;2.97;;
33094;SDS011;19459;53.044;8.910;2023-01-28T04:41:06;7.43;;;3.30;;
33094;SDS011;19459;53.044;8.910;2023-01-28T04:43:32;8.25;;;3.22;;
33094;SDS011;19459;53.044;8.910;2023-01-28T04:45:58;9.95;;;3.20;;
33094;SDS011;19459;53.044;8.910;2023-01-28T04:48:24;4.47;;;3.00;;
33094;SDS011;19459;53.044;8.910;2023-01-28T04:50:50;3.78;;;3.03;;
33094;SDS011;19459;53.044;8.910;2023-01-28T04:53:16;5.30;;;3.15;;
33094;SDS011;19459;53.044;8.910;2023-01-28T04:55:43;10.45;;;3.30;;
33094;SDS011;19459;53.044;8.910;2023-01-28T04:58:09;6.60;;;3.95;;
33094;SDS011;19459;53.044;8.910;2023-01-28T05:00:35;8.50;;;3.35;;
33094;SDS011;19459;53.044;8.910;2023-01-28T05:03:01;8.18;;;3.75;;
33094;SDS011;19459;53.044;8.910;2023-01-28T05:05:26;4.57;;;3.17;;
33094;SDS011;19459;53.044;8.910;2023-01-28T05:07:52;7.75;;;3.53;;
33094;SDS011;19459;53.044;8.910;2023-01-28T05:10:21;6.07;;;3.95;;
33094;SDS011;19459;53.044;8.910;2023-01-28T05:12:48;9.20;;;3.47;;
33094;SDS011;19459;53.044;8.910;2023-01-28T05:15:17;6.05;;;3.88;;
33094;SDS011;19459;53.044;8.910;2023-01-28T05:17:44;6.80;;;4.43;;
33094;SDS011;19459;53.044;8.910;2023-01-28T05:20:11;8.38;;;4.32;;
33094;SDS011;19459;53.044;8.910;2023-01-28T05:22:38;10.20;;;4.22;;
33094;SDS011;19459;53.044;8.910;2023-01-28T05:25:05;10.57;;;3.97;;
33094;SDS011;19459;53.044;8.910;2023-01-28T05:27:32;6.60;;;4.40;;
33094;SDS011;19459;53.044;8.910;2023-01-28T05:29:58;5.47;;;4.55;;
33094;SDS011;19459;53.044;8.910;2023-01-28T05:32:25;6.38;;;4.78;;
33094;SDS011;19459;53.044;8.910;2023-01-28T05:34:50;12.93;;;7.00;;
33094;SDS011;19459;53.044;8.910;2023-01-28T05:37:16;10.43;;;5.90;;
33094;SDS011;19459;53.044;8.910;2023-01-28T05:39:42;16.80;;;7.30;;
33094;SDS011;19459;53.044;8.910;2023-01-28T05:42:08;10.52;;;6.32;;
33094;SDS011;19459;53.044;8.910;2023-01-28T05:44:34;13.30;;;7.07;;
33094;SDS011;19459;53.044;8.910;2023-01-28T05:47:01;12.90;;;8.32;;
33094;SDS011;19459;53.044;8.910;2023-01-28T05:49:27;18.25;;;10.20;;
33094;SDS011;19459;53.044;8.910;2023-01-28T05:51:53;17.45;;;11.05;;
33094;SDS011;19459;53.044;8.910;2023-01-28T05:54:19;17.02;;;10.27;;
33094;SDS011;19459;53.044;8.910;2023-01-28T05:56:44;19.30;;;12.25;;
33094;SDS011;19459;53.044;8.910;2023-01-28T05:59:11;15.52;;;12.15;;
33094;SDS011;19459;53.044;8.910;2023-01-28T06:01:37;24.90;;;12.75;;
33094;SDS011;19459;53.044;8.910;2023-01-28T06:04:03;18.83;;;12.80;;
33094;SDS011;19459;53.044;8.910;2023-01-28T06:06:29;17.55;;;12.95;;
33094;SDS011;19459;53.044;8.910;2023-01-28T06:08:55;23.83;;;11.90;;
33094;SDS011;19459;53.044;8.910;2023-01-28T06:11:21;21.73;;;11.55;;
33094;SDS011;19459;53.044;8.910;2023-01-28T06:13:47;20.23;;;13.02;;
33094;SDS011;19459;53.044;8.910;2023-01-28T06:16:13;18.70;;;12.45;;
33094;SDS011;19459;53.044;8.910;2023-01-28T06:18:38;17.05;;;13.15;;
33094;SDS011;19459;53.044;8.910;2023-01-28T06:21:05;22.10;;;13.90;;
33094;SDS011;19459;53.044;8.910;2023-01-28T06:23:31;24.23;;;14.57;;
33094;SDS011;19459;53.044;8.910;2023-01-28T06:26:01;28.08;;;15.13;;
33094;SDS011;19459;53.044;8.910;2023-01-28T06:28:26;25.50;;;15.90;;
33094;SDS011;19459;53.044;8.910;2023-01-28T06:30:52;30.38;;;16.02;;
33094;SDS011;19459;53.044;8.910;2023-01-28T06:33:19;25.90;;;16.17;;
33094;SDS011;19459;53.044;8.910;2023-01-28T06:35:45;25.23;;;16.65;;
33094;SDS011;19459;53.044;8.910;2023-01-28T06:38:11;29.27;;;17.45;;
33094;SDS011;19459;53.044;8.910;2023-01-28T06:40:37;25.92;;;16.77;;
33094;SDS011;19459;53.044;8.910;2023-01-28T06:43:04;26.25;;;16.15;;
33094;SDS011;19459;53.044;8.910;2023-01-28T06:45:31;28.42;;;17.63;;
33094;SDS011;19459;53.044;8.910;2023-01-28T06:47:57;29.13;;;18.52;;
33094;SDS011;19459;53.044;8.910;2023-01-28T06:50:23;29.60;;;17.48;;
33094;SDS011;19459;53.044;8.910;2023-01-28T06:52:49;31.75;;;18.55;;
33094;SDS011;19459;53.044;8.910;2023-01-28T06:55:15;32.53;;;20.55;;
33094;SDS011;19459;53.044;8.910;2023-01-28T06:57:41;32.22;;;20.45;;
33094;SDS011;19459;53.044;8.910;2023-01-28T07:00:07;33.55;;;22.30;;
33094;SDS011;19459;53.044;8.910;2023-01-28T07:02:38;33.33;;;20.90;;
33094;SDS011;19459;53.044;8.910;2023-01-28T07:05:04;34.28;;;20.42;;
33094;SDS011;19459;53.044;8.910;2023-01-28T07:07:30;36.00;;;20.88;;
33094;SDS011;19459;53.044;8.910;2023-01-28T07:09:56;32.22;;;20.27;;
33094;SDS011;19459;53.044;8.910;2023-01-28T07:12:22;40.08;;;21.23;;
33094;SDS011;19459;53.044;8.910;2023-01-28T07:14:48;37.65;;;22.90;;
33094;SDS011;19459;53.044;8.910;2023-01-28T07:17:14;42.72;;;23.80;;
33094;SDS011;19459;53.044;8.910;2023-01-28T07:19:40;39.55;;;23.08;;
33094;SDS011;19459;53.044;8.910;2023-01-28T07:22:06;40.38;;;24.35;;
33094;SDS011;19459;53.044;8.910;2023-01-28T07:24:31;43.20;;;24.52;;
33094;SDS011;19459;53.044;8.910;2023-01-28T07:26:57;44.30;;;23.95;;
33094;SDS011;19459;53.044;8.910;2023-01-28T07:29:23;45.58;;;25.30;;
33094;SDS011;19459;53.044;8.910;2023-01-28T07:31:49;49.03;;;26.70;;
33094;SDS011;19459;53.044;8.910;2023-01-28T07:34:14;47.25;;;27.25;;
33094;SDS011;19459;53.044;8.910;2023-01-28T07:36:41;43.95;;;26.30;;
33094;SDS011;19459;53.044;8.910;2023-01-28T07:39:06;46.88;;;27.85;;
33094;SDS011;19459;53.044;8.910;2023-01-28T07:41:32;46.75;;;27.58;;
33094;SDS011;19459;53.044;8.910;2023-01-28T07:43:58;47.58;;;25.65;;
33094;SDS011;19459;53.044;8.910;2023-01-28T07:46:24;46.70;;;27.52;;
33094;SDS011;19459;53.044;8.910;2023-01-28T07:48:49;47.63;;;26.90;;
33094;SDS011;19459;53.044;8.910;2023-01-28T07:51:15;54.30;;;31.20;;
33094;SDS011;19459;53.044;8.910;2023-01-28T07:53:41;59.80;;;34.17;;
33094;SDS011;19459;53.044;8.910;2023-01-28T07:56:07;49.58;;;27.75;;
33094;SDS011;19459;53.044;8.910;2023-01-28T07:58:33;50.97;;;29.58;;
33094;SDS011;19459;53.044;8.910;2023-01-28T08:00:59;45.28;;;25.80;;
33094;SDS011;19459;53.044;8.910;2023-01-28T08:03:25;46.13;;;26.35;;
33094;SDS011;19459;53.044;8.910;2023-01-28T08:05:53;46.30;;;28.17;;
33094;SDS011;19459;53.044;8.910;2023-01-28T08:08:23;46.95;;;26.42;;
33094;SDS011;19459;53.044;8.910;2023-01-28T08:10:51;54.22;;;30.67;;
33094;SDS011;19459;53.044;8.910;2023-01-28T08:13:17;46.85;;;26.95;;
33094;SDS011;19459;53.044;8.910;2023-01-28T08:15:44;51.00;;;28.27;;
33094;SDS011;19459;53.044;8.910;2023-01-28T08:18:12;48.80;;;27.50;;
33094;SDS011;19459;53.044;8.910;2023-01-28T08:20:40;46.67;;;26.85;;
33094;SDS011;19459;53.044;8.910;2023-01-28T08:23:10;47.55;;;28.67;;
33094;SDS011;19459;53.044;8.910;2023-01-28T08:25:42;51.88;;;27.50;;
33094;SDS011;19459;53.044;8.910;2023-01-28T08:28:08;45.63;;;26.38;;
33094;SDS011;19459;53.044;8.910;2023-01-28T08:30:35;52.40;;;27.52;;
33094;SDS011;19459;53.044;8.910;2023-01-28T08:33:03;46.05;;;25.80;;
33094;SDS011;19459;53.044;8.910;2023-01-28T08:35:30;41.60;;;25.58;;
33094;SDS011;19459;53.044;8.910;2023-01-28T08:37:58;36.60;;;23.20;;
33094;SDS011;19459;53.044;8.910;2023-01-28T08:40:25;44.42;;;25.75;;
33094;SDS011;19459;53.044;8.910;2023-01-28T08:42:52;46.67;;;25.48;;
33094;SDS011;19459;53.044;8.910;2023-01-28T08:45:19;47.80;;;25.08;;
33094;SDS011;19459;53.044;8.910;2023-01-28T08:47:49;42.22;;;24.15;;
33094;SDS011;19459;53.044;8.910;2023-01-28T08:50:28;46.50;;;24.13;;
33094;SDS011;19459;53.044;8.910;2023-01-28T08:52:58;40.83;;;23.58;;
33094;SDS011;19459;53.044;8.910;2023-01-28T08:55:30;40.90;;;24.88;;
33094;SDS011;19459;53.044;8.910;2023-01-28T08:57:57;39.65;;;22.63;;
33094;SDS011;19459;53.044;8.910;2023-01-28T09:00:28;33.58;;;22.00;;
33094;SDS011;19459;53.044;8.910;2023-01-28T09:02:54;40.22;;;24.10;;
33094;SDS011;19459;53.044;8.910;2023-01-28T09:05:20;36.97;;;23.42;;
33094;SDS011;19459;53.044;8.910;2023-01-28T09:07:46;41.72;;;23.33;;
33094;SDS011;19459;53.044;8.910;2023-01-28T09:10:12;50.40;;;24.05;;
33094;SDS011;19459;53.044;8.910;2023-01-28T09:12:40;41.92;;;23.83;;
33094;SDS011;19459;53.044;8.910;2023-01-28T09:15:07;39.03;;;26.50;;
33094;SDS011;19459;53.044;8.910;2023-01-28T09:17:34;41.65;;;24.65;;
33094;SDS011;19459;53.044;8.910;2023-01-28T09:19:59;42.45;;;26.13;;
33094;SDS011;19459;53.044;8.910;2023-01-28T09:22:25;39.25;;;23.73;;
33094;SDS011;19459;53.044;8.910;2023-01-28T09:24:51;40.75;;;26.30;;
33094;SDS011;19459;53.044;8.910;2023-01-28T09:27:17;40.92;;;23.55;;
33094;SDS011;19459;53.044;8.910;2023-01-28T09:29:42;39.45;;;23.90;;
33094;SDS011;19459;53.044;8.910;2023-01-28T09:32:08;40.53;;;24.60;;
33094;SDS011;19459;53.044;8.910;2023-01-28T09:34:34;42.05;;;25.23;;
33094;SDS011;19459;53.044;8.910;2023-01-28T09:37:01;37.20;;;22.85;;
33094;SDS011;19459;53.044;8.910;2023-01-28T09:39:27;41.28;;;23.38;;
33094;SDS011;19459;53.044;8.910;2023-01-28T09:47:52;40.13;;;21.80;;
33094;SDS011;19459;53.044;8.910;2023-01-28T09:52:49;37.85;;;25.33;;
33094;SDS011;19459;53.044;8.910;2023-01-28T09:55:22;34.05;;;23.08;;
33094;SDS011;19459;53.044;8.910;2023-01-28T09:57:57;37.50;;;23.48;;
33094;SDS011;19459;53.044;8.910;2023-01-28T10:00:25;36.45;;;22.73;;
33094;SDS011;19459;53.044;8.910;2023-01-28T10:03:27;37.17;;;23.27;;
33094;SDS011;19459;53.044;8.910;2023-01-28T10:06:42;38.97;;;23.92;;
33094;SDS011;19459;53.044;8.910;2023-01-28T10:09:36;33.85;;;22.02;;
33094;SDS011;19459;53.044;8.910;2023-01-28T10:18:00;43.63;;;26.58;;
33094;SDS011;19459;53.044;8.910;2023-01-28T10:20:37;32.35;;;21.13;;
33094;SDS011;19459;53.044;8.910;2023-01-28T10:23:38;28.40;;;19.02;;
33094;SDS011;19459;53.044;8.910;2023-01-28T10:26:30;32.08;;;17.83;;
33094;SDS011;19459;53.044;8.910;2023-01-28T10:29:08;31.50;;;19.88;;
33094;SDS011;19459;53.044;8.910;2023-01-28T10:34:31;32.38;;;20.58;;
33094;SDS011;19459;53.044;8.910;2023-01-28T10:36:57;27.33;;;18.95;;
33094;SDS011;19459;53.044;8.910;2023-01-28T10:39:23;29.05;;;19.08;;
33094;SDS011;19459;53.044;8.910;2023-01-28T10:41:50;29.08;;;18.20;;
33094;SDS011;19459;53.044;8.910;2023-01-28T10:44:34;27.98;;;19.27;;
33094;SDS011;19459;53.044;8.910;2023-01-28T10:47:11;30.70;;;17.20;;
33094;SDS011;19459;53.044;8.910;2023-01-28T10:49:42;29.85;;;18.13;;
33094;SDS011;19459;53.044;8.910;2023-01-28T10:52:15;27.77;;;18.80;;
33094;SDS011;19459;53.044;8.910;2023-01-28T10:54:42;31.67;;;19.67;;
33094;SDS011;19459;53.044;8.910;2023-01-28T10:57:09;35.00;;;20.38;;
33094;SDS011;19459;53.044;8.910;2023-01-28T10:59:38;28.50;;;19.40;;
33094;SDS011;19459;53.044;8.910;2023-01-28T11:05:03;31.92;;;19.45;;
33094;SDS011;19459;53.044;8.910;2023-01-28T11:07:41;34.05;;;20.60;;
33094;SDS011;19459;53.044;8.910;2023-01-28T11:13:12;30.25;;;17.58;;
33094;SDS011;19459;53.044;8.910;2023-01-28T11:18:54;23.70;;;15.63;;
33094;SDS011;19459;53.044;8.910;2023-01-28T11:21:29;26.08;;;16.95;;
33094;SDS011;19459;53.044;8.910;2023-01-28T11:24:03;26.77;;;16.50;;
33094;SDS011;19459;53.044;8.910;2023-01-28T11:26:38;25.10;;;15.60;;
33094;SDS011;19459;53.044;8.910;2023-01-28T11:31:55;31.13;;;19.42;;
33094;SDS011;19459;53.044;8.910;2023-01-28T11:34:27;30.30;;;18.50;;
33094;SDS011;19459;53.044;8.910;2023-01-28T11:37:00;23.75;;;15.18;;
33094;SDS011;19459;53.044;8.910;2023-01-28T11:39:40;29.13;;;17.50;;
33094;SDS011;19459;53.044;8.910;2023-01-28T11:44:36;25.60;;;15.48;;
33094;SDS011;19459;53.044;8.910;2023-01-28T11:47:15;25.50;;;14.38;;
33094;SDS011;19459;53.044;8.910;2023-01-28T11:59:19;26.60;;;17.60;;
33094;SDS011;19459;53.044;8.910;2023-01-28T12:02:08;35.38;;;18.30;;
33094;SDS011;19459;53.044;8.910;2023-01-28T12:15:53;25.42;;;15.52;;
33094;SDS011;19459;53.044;8.910;2023-01-28T12:21:25;31.35;;;17.17;;
33094;SDS011;19459;53.044;8.910;2023-01-28T12:24:33;26.98;;;16.77;;
33094;SDS011;19459;53.044;8.910;2023-01-28T12:28:01;30.15;;;17.90;;
33094;SDS011;19459;53.044;8.910;2023-01-28T12:30:30;26.52;;;16.63;;
33094;SDS011;19459;53.044;8.910;2023-01-28T12:42:12;31.55;;;18.27;;
33094;SDS011;19459;53.044;8.910;2023-01-28T12:44:59;28.70;;;17.65;;
33094;SDS011;19459;53.044;8.910;2023-01-28T12:47:41;30.85;;;19.48;;
33094;SDS011;19459;53.044;8.910;2023-01-28T12:52:53;28.10;;;17.02;;
33094;SDS011;19459;53.044;8.910;2023-01-28T12:56:32;31.25;;;17.38;;
33094;SDS011;19459;53.044;8.910;2023-01-28T12:58:48;30.20;;;17.73;;
33094;SDS011;19459;53.044;8.910;2023-01-28T13:01:23;36.70;;;21.20;;
33094;SDS011;19459;53.044;8.910;2023-01-28T13:04:07;32.33;;;20.13;;
33094;SDS011;19459;53.044;8.910;2023-01-28T13:07:00;30.60;;;18.13;;
33094;SDS011;19459;53.044;8.910;2023-01-28T13:09:32;31.30;;;18.20;;
33094;SDS011;19459;53.044;8.910;2023-01-28T13:12:01;27.80;;;17.38;;
33094;SDS011;19459;53.044;8.910;2023-01-28T13:14:30;28.92;;;16.52;;
33094;SDS011;19459;53.044;8.910;2023-01-28T13:17:10;27.55;;;16.55;;
33094;SDS011;19459;53.044;8.910;2023-01-28T13:19:50;31.58;;;17.45;;
33094;SDS011;19459;53.044;8.910;2023-01-28T13:28:34;27.35;;;16.58;;
33094;SDS011;19459;53.044;8.910;2023-01-28T13:31:35;26.13;;;14.73;;
33094;SDS011;19459;53.044;8.910;2023-01-28T13:36:27;23.13;;;15.20;;
33094;SDS011;19459;53.044;8.910;2023-01-28T13:41:44;27.35;;;15.60;;
33094;SDS011;19459;53.044;8.910;2023-01-28T13:44:38;28.05;;;15.63;;
33094;SDS011;19459;53.044;8.910;2023-01-28T14:09:35;30.65;;;16.70;;
33094;SDS011;19459;53.044;8.910;2023-01-28T14:12:52;28.23;;;15.82;;
33094;SDS011;19459;53.044;8.910;2023-01-28T14:15:49;27.08;;;15.88;;
33094;SDS011;19459;53.044;8.910;2023-01-28T14:18:50;27.52;;;16.23;;
33094;SDS011;19459;53.044;8.910;2023-01-28T14:21:20;24.70;;;15.48;;
33094;SDS011;19459;53.044;8.910;2023-01-28T14:23:47;26.27;;;14.55;;
33094;SDS011;19459;53.044;8.910;2023-01-28T14:26:31;23.05;;;14.43;;
33094;SDS011;19459;53.044;8.910;2023-01-28T14:32:17;23.42;;;15.40;;
33094;SDS011;19459;53.044;8.910;2023-01-28T14:34:48;25.85;;;15.07;;
33094;SDS011;19459;53.044;8.910;2023-01-28T14:37:15;21.02;;;14.15;;
33094;SDS011;19459;53.044;8.910;2023-01-28T14:42:40;20.88;;;13.18;;
33094;SDS011;19459;53.044;8.910;2023-01-28T14:59:21;22.80;;;13.73;;
33094;SDS011;19459;53.044;8.910;2023-01-28T15:01:56;21.30;;;13.63;;
33094;SDS011;19459;53.044;8.910;2023-01-28T15:04:28;25.98;;;15.80;;
33094;SDS011;19459;53.044;8.910;2023-01-28T15:07:14;23.00;;;14.73;;
33094;SDS011;19459;53.044;8.910;2023-01-28T15:09:59;23.33;;;14.05;;
33094;SDS011;19459;53.044;8.910;2023-01-28T15:12:31;22.30;;;14.57;;
33094;SDS011;19459;53.044;8.910;2023-01-28T15:15:08;21.02;;;14.43;;
33094;SDS011;19459;53.044;8.910;2023-01-28T15:17:36;23.02;;;14.52;;
33094;SDS011;19459;53.044;8.910;2023-01-28T15:20:02;26.70;;;14.63;;
33094;SDS011;19459;53.044;8.910;2023-01-28T15:22:31;26.17;;;14.45;;
33094;SDS011;19459;53.044;8.910;2023-01-28T15:24:57;25.30;;;15.13;;
33094;SDS011;19459;53.044;8.910;2023-01-28T15:27:25;23.60;;;15.25;;
33094;SDS011;19459;53.044;8.910;2023-01-28T15:29:55;25.70;;;14.48;;
33094;SDS011;19459;53.044;8.910;2023-01-28T15:32:25;22.30;;;14.10;;
33094;SDS011;19459;53.044;8.910;2023-01-28T15:34:54;24.88;;;15.57;;
33094;SDS011;19459;53.044;8.910;2023-01-28T15:37:20;23.75;;;14.90;;
33094;SDS011;19459;53.044;8.910;2023-01-28T15:39:46;29.70;;;15.60;;
33094;SDS011;19459;53.044;8.910;2023-01-28T15:42:20;28.40;;;16.52;;
33094;SDS011;19459;53.044;8.910;2023-01-28T15:44:50;22.85;;;14.48;;
33094;SDS011;19459;53.044;8.910;2023-01-28T15:47:19;27.70;;;15.60;;
33094;SDS011;19459;53.044;8.910;2023-01-28T15:49:50;28.10;;;16.15;;
33094;SDS011;19459;53.044;8.910;2023-01-28T15:52:20;26.50;;;16.65;;
33094;SDS011;19459;53.044;8.910;2023-01-28T15:54:54;27.95;;;16.40;;
33094;SDS011;19459;53.044;8.910;2023-01-28T15:57:20;29.80;;;17.27;;
33094;SDS011;19459;53.044;8.910;2023-01-28T16:02:30;28.98;;;15.45;;
33094;SDS011;19459;53.044;8.910;2023-01-28T16:04:57;29.13;;;15.63;;
33094;SDS011;19459;53.044;8.910;2023-01-28T16:07:28;27.92;;;14.90;;
33094;SDS011;19459;53.044;8.910;2023-01-28T16:09:57;25.65;;;14.65;;
33094;SDS011;19459;53.044;8.910;2023-01-28T16:12:26;24.55;;;16.10;;
33094;SDS011;19459;53.044;8.910;2023-01-28T16:14:55;27.10;;;16.05;;
33094;SDS011;19459;53.044;8.910;2023-01-28T16:17:27;33.78;;;16.88;;
33094;SDS011;19459;53.044;8.910;2023-01-28T16:20:00;29.40;;;17.15;;
33094;SDS011;19459;53.044;8.910;2023-01-28T16:22:33;26.40;;;15.88;;
33094;SDS011;19459;53.044;8.910;2023-01-28T16:27:45;28.38;;;16.50;;
33094;SDS011;19459;53.044;8.910;2023-01-28T16:30:11;28.83;;;16.33;;
33094;SDS011;19459;53.044;8.910;2023-01-28T16:32:39;33.42;;;16.48;;
33094;SDS011;19459;53.044;8.910;2023-01-28T16:35:18;25.33;;;15.45;;
33094;SDS011;19459;53.044;8.910;2023-01-28T16:37:54;28.58;;;15.45;;
33094;SDS011;19459;53.044;8.910;2023-01-28T16:40:22;32.45;;;17.45;;
33094;SDS011;19459;53.044;8.910;2023-01-28T16:42:49;27.25;;;15.95;;
33094;SDS011;19459;53.044;8.910;2023-01-28T16:45:18;30.17;;;16.00;;
33094;SDS011;19459;53.044;8.910;2023-01-28T16:47:47;32.03;;;17.67;;
33094;SDS011;19459;53.044;8.910;2023-01-28T16:50:13;24.48;;;14.93;;
33094;SDS011;19459;53.044;8.910;2023-01-28T16:52:40;29.00;;;16.85;;
33094;SDS011;19459;53.044;8.910;2023-01-28T16:55:15;26.98;;;15.25;;
33094;SDS011;19459;53.044;8.910;2023-01-28T16:57:44;27.17;;;16.10;;
33094;SDS011;19459;53.044;8.910;2023-01-28T17:02:47;28.52;;;15.52;;
33094;SDS011;19459;53.044;8.910;2023-01-28T17:05:17;29.38;;;16.60;;
33094;SDS011;19459;53.044;8.910;2023-01-28T17:07:48;23.05;;;14.63;;
33094;SDS011;19459;53.044;8.910;2023-01-28T17:10:14;23.23;;;14.90;;
33094;SDS011;19459;53.044;8.910;2023-01-28T17:12:41;23.60;;;15.05;;
33094;SDS011;19459;53.044;8.910;2023-01-28T17:15:08;27.13;;;15.32;;
33094;SDS011;19459;53.044;8.910;2023-01-28T17:17:35;27.10;;;15.18;;
33094;SDS011;19459;53.044;8.910;2023-01-28T17:20:01;28.02;;;15.32;;
33094;SDS011;19459;53.044;8.910;2023-01-28T17:22:26;28.75;;;15.88;;